Time;durP1;ratioP1;P1;durP2;ratioP2;P2;SDS_P1;SDS_P2;PMS_P1;PMS_P2;Temp;Humidity;BMP_temperature;BMP_pressure;BME280_temperature;BME280_humidity;BME280_pressure;Samples;Min_cycle;Max_cycle;Signal;HPM_P1;HPM_P2
2021/09/06 00:04:42;;;;;;;6.50;3.80;;;;;;;11.97;59.45;99980.17;234236;1198;138659;-66
2021/09/06 00:09:52;;;;;;;7.60;3.60;;;;;;;11.92;59.78;99977.94;234053;1199;138740;-64
2021/09/06 00:14:58;;;;;;;7.10;3.70;;;;;;;11.86;59.68;99981.46;234024;1199;141320;-62
2021/09/06 00:20:02;;;;;;;5.30;3.70;;;;;;;11.80;59.82;99984.42;234142;1198;139065;-67
2021/09/06 00:25:05;;;;;;;6.00;3.60;;;;;;;11.74;59.93;99986.14;234055;1198;138835;-68
2021/09/06 00:30:10;;;;;;;5.50;3.40;;;;;;;11.70;59.95;99981.21;233942;1200;139038;-69
2021/09/06 00:35:13;;;;;;;8.50;4.00;;;;;;;11.71;60.10;99985.23;234143;1198;143756;-65
2021/09/06 00:40:18;;;;;;;7.80;3.50;;;;;;;11.74;59.98;99985.46;234134;1198;138863;-65
2021/09/06 00:45:21;;;;;;;6.30;3.70;;;;;;;11.77;60.26;99981.16;233955;1199;138471;-64
2021/09/06 00:50:24;;;;;;;9.60;4.00;;;;;;;11.79;60.47;99982.52;233350;1200;138181;-64
2021/09/06 00:55:28;;;;;;;7.10;3.80;;;;;;;11.74;60.19;99982.94;234090;1201;139712;-63
2021/09/06 01:00:33;;;;;;;6.40;4.00;;;;;;;11.70;60.01;99984.42;234008;1198;139081;-66
2021/09/06 01:05:36;;;;;;;6.80;4.00;;;;;;;11.63;60.05;99984.40;233693;1200;139081;-64
2021/09/06 01:10:45;;;;;;;7.00;3.90;;;;;;;11.57;60.19;99989.33;234076;1200;139196;-60
2021/09/06 01:16:00;;;;;;;7.50;4.10;;;;;;;11.49;60.58;99986.20;234139;1198;138941;-60
2021/09/06 01:21:04;;;;;;;7.40;3.90;;;;;;;11.40;60.80;99982.58;234127;1198;139006;-64
2021/09/06 01:26:23;;;;;;;8.50;3.90;;;;;;;11.31;60.61;99983.33;234021;1199;139228;-63
2021/09/06 01:31:26;;;;;;;7.40;3.60;;;;;;;11.25;60.68;99981.88;234080;1198;139050;-59
2021/09/06 01:36:30;;;;;;;8.40;3.70;;;;;;;11.20;60.61;99978.42;233835;1198;139890;-60
2021/09/06 01:41:35;;;;;;;8.40;4.00;;;;;;;11.16;60.72;99983.40;233834;1200;139400;-64
2021/09/06 01:46:39;;;;;;;6.30;3.90;;;;;;;11.12;60.82;99984.12;234061;1201;138826;-65
2021/09/06 01:51:42;;;;;;;6.90;3.70;;;;;;;11.05;61.06;99986.41;234036;1200;139026;-65
2021/09/06 01:56:48;;;;;;;6.50;3.90;;;;;;;10.97;61.19;99994.08;234026;1199;138668;-65
2021/09/06 02:01:51;;;;;;;6.00;3.70;;;;;;;10.89;61.06;99993.39;234060;1198;138714;-64
2021/09/06 02:06:56;;;;;;;6.00;3.60;;;;;;;10.80;60.84;99998.80;233702;1199;138503;-65
2021/09/06 02:12:00;;;;;;;5.00;3.20;;;;;;;10.68;60.94;100003.30;233891;1199;138035;-65
2021/09/06 02:17:03;;;;;;;7.70;3.70;;;;;;;10.57;60.92;100009.30;234118;1198;138667;-61
2021/09/06 02:22:10;;;;;;;8.00;3.70;;;;;;;10.46;60.99;100008.23;233908;1199;139003;-65
2021/09/06 02:27:46;;;;;;;6.30;3.70;;;;;;;10.33;61.07;100008.27;233711;1199;139160;-68
2021/09/06 02:32:54;;;;;;;6.50;4.00;;;;;;;10.21;61.43;100007.70;233584;1199;138701;-67
2021/09/06 02:38:28;;;;;;;6.70;3.70;;;;;;;10.14;61.21;100007.13;233361;1200;139477;-64
2021/09/06 02:43:33;;;;;;;8.20;4.20;;;;;;;10.09;61.44;100000.60;233773;1200;139103;-63
2021/09/06 02:48:36;;;;;;;8.90;4.00;;;;;;;10.07;61.84;100007.77;234014;1199;138920;-64
2021/09/06 02:53:41;;;;;;;8.80;4.10;;;;;;;10.04;61.56;100015.41;233919;1198;138335;-64
2021/09/06 02:58:44;;;;;;;6.80;4.00;;;;;;;9.98;61.71;100016.00;233576;1198;138412;-66
2021/09/06 03:03:48;;;;;;;6.40;3.70;;;;;;;9.92;62.06;100012.88;233836;1199;140098;-65
2021/09/06 03:08:52;;;;;;;11.50;4.10;;;;;;;9.84;61.79;100010.39;234073;1195;139069;-67
2021/09/06 03:13:56;;;;;;;7.20;3.70;;;;;;;9.77;61.88;100011.44;233249;1200;138958;-65
2021/09/06 03:18:59;;;;;;;7.00;4.00;;;;;;;9.70;62.25;100011.18;233867;1200;141751;-63
2021/09/06 03:24:07;;;;;;;8.30;4.20;;;;;;;9.66;62.36;100011.37;234034;1199;139268;-65
2021/09/06 03:29:11;;;;;;;7.10;4.10;;;;;;;9.65;62.33;100011.95;233770;1199;139583;-64
2021/09/06 03:34:14;;;;;;;6.80;4.20;;;;;;;9.67;62.39;100007.06;234087;1198;139067;-62
2021/09/06 03:39:19;;;;;;;6.40;4.00;;;;;;;9.68;62.40;100007.02;233969;1199;138801;-63
2021/09/06 03:44:24;;;;;;;9.40;4.50;;;;;;;9.71;62.53;100004.77;234008;1199;139665;-62
2021/09/06 03:49:28;;;;;;;7.00;4.00;;;;;;;9.70;62.75;100010.11;234081;1199;138358;-63
2021/09/06 03:54:31;;;;;;;9.50;4.40;;;;;;;9.67;62.85;100017.52;234052;1200;138056;-62
2021/09/06 03:59:34;;;;;;;6.50;4.40;;;;;;;9.65;62.55;100015.13;233843;1198;141186;-62
2021/09/06 04:04:41;;;;;;;7.70;4.00;;;;;;;9.63;62.87;100015.02;234176;1199;137965;-63
2021/09/06 04:09:44;;;;;;;6.80;4.40;;;;;;;9.59;62.83;100009.02;234105;1198;138826;-62
2021/09/06 04:14:51;;;;;;;8.00;4.40;;;;;;;9.54;62.93;100014.55;233982;1199;138666;-65
2021/09/06 04:19:54;;;;;;;9.40;4.40;;;;;;;9.52;62.97;100017.30;234006;1199;139257;-65
2021/09/06 04:25:00;;;;;;;32.50;19.80;;;;;;;9.59;63.36;100019.43;234102;1199;140510;-62
2021/09/06 04:30:05;;;;;;;7.70;4.50;;;;;;;9.70;63.39;100022.71;233967;1198;138919;-65
2021/09/06 04:35:08;;;;;;;10.00;5.00;;;;;;;9.67;63.11;100021.59;234190;1200;138738;-63
2021/09/06 04:40:13;;;;;;;9.40;4.30;;;;;;;9.63;63.21;100022.48;233855;1196;140127;-61
2021/09/06 04:45:17;;;;;;;9.60;4.40;;;;;;;9.61;63.15;100024.86;234034;1199;138618;-63
2021/09/06 04:50:21;;;;;;;8.30;4.50;;;;;;;9.59;63.21;100033.63;234016;1200;138277;-65
2021/09/06 04:55:25;;;;;;;25.30;15.90;;;;;;;9.60;63.47;100032.88;234006;1199;138794;-61
2021/09/06 05:00:28;;;;;;;6.00;3.90;;;;;;;9.65;63.85;100033.04;233984;1199;139716;-59
2021/09/06 05:05:31;;;;;;;11.90;4.80;;;;;;;9.71;63.62;100032.59;233985;1200;139100;-62
2021/09/06 05:10:35;;;;;;;10.90;4.70;;;;;;;9.80;63.95;100033.11;233750;1200;139101;-62
2021/09/06 05:15:38;;;;;;;10.30;4.70;;;;;;;9.87;63.72;100031.73;234108;1198;138458;-63
2021/09/06 05:20:43;;;;;;;8.70;5.30;;;;;;;9.96;63.88;100041.83;233957;1199;139539;-63
2021/09/06 05:25:47;;;;;;;10.00;4.80;;;;;;;10.04;64.05;100050.84;233792;1201;138647;-64
2021/09/06 05:30:53;;;;;;;9.60;5.20;;;;;;;10.12;64.15;100044.98;233919;1198;138464;-65
2021/09/06 05:35:57;;;;;;;7.70;5.20;;;;;;;10.19;64.02;100044.85;234057;1198;138549;-61
2021/09/06 05:41:00;;;;;;;9.50;5.40;;;;;;;10.29;64.45;100045.50;233927;1199;138692;-64
2021/09/06 05:46:04;;;;;;;10.10;4.90;;;;;;;10.37;64.12;100040.90;233868;1201;139336;-63
2021/09/06 05:51:09;;;;;;;9.90;4.80;;;;;;;10.48;64.23;100041.66;233446;1200;140360;-62
2021/09/06 05:56:33;;;;;;;6.90;5.00;;;;;;;10.61;64.33;100039.26;233193;1201;140088;-62
2021/09/06 06:01:37;;;;;;;11.00;5.00;;;;;;;10.75;64.43;100034.92;233873;1201;140419;-63
2021/09/06 06:06:41;;;;;;;10.60;5.60;;;;;;;10.86;64.68;100031.34;233588;1201;139188;-62
2021/09/06 06:11:44;;;;;;;8.60;4.90;;;;;;;10.98;64.54;100030.79;233890;1201;139172;-63
2021/09/06 06:16:54;;;;;;;9.40;5.20;;;;;;;11.07;64.25;100033.21;233801;1198;139005;-62
2021/09/06 06:22:00;;;;;;;8.00;5.40;;;;;;;11.16;64.64;100030.67;234107;1198;138759;-62
2021/09/06 06:27:22;;;;;;;6.50;4.40;;;;;;;11.25;64.58;100030.04;233597;1200;139203;-60
2021/09/06 06:32:27;;;;;;;12.10;4.80;;;;;;;11.37;64.72;100031.95;233742;1201;140964;-61
2021/09/06 06:37:39;;;;;;;7.50;4.80;;;;;;;11.49;64.55;100034.16;234002;1200;139690;-60
2021/09/06 06:42:42;;;;;;;8.10;4.40;;;;;;;11.64;64.61;100039.83;233928;1201;139746;-61
2021/09/06 06:47:48;;;;;;;10.00;4.70;;;;;;;11.77;64.60;100047.90;233600;1201;139675;-59
2021/09/06 06:52:54;;;;;;;9.20;4.90;;;;;;;12.53;66.65;100047.30;234135;1201;139546;-61
2021/09/06 06:57:58;;;;;;;8.10;4.80;;;;;;;12.96;64.68;100048.85;234090;1198;138359;-61
2021/09/06 07:03:02;;;;;;;6.80;4.60;;;;;;;12.93;63.81;100054.70;233789;1198;138598;-61
2021/09/06 07:08:06;;;;;;;9.60;5.10;;;;;;;12.85;63.38;100056.82;233762;1199;139128;-61
2021/09/06 07:13:11;;;;;;;8.10;4.80;;;;;;;12.81;63.41;100066.46;234016;1200;139060;-62
2021/09/06 07:18:14;;;;;;;11.30;4.80;;;;;;;12.78;63.43;100069.44;233961;1201;138937;-62
2021/09/06 07:23:17;;;;;;;7.20;4.90;;;;;;;12.81;63.42;100079.11;233828;1199;139199;-63
2021/09/06 07:28:21;;;;;;;10.30;6.30;;;;;;;12.92;63.55;100080.27;234001;1198;139862;-63
2021/09/06 07:33:25;;;;;;;8.50;5.00;;;;;;;13.05;63.60;100084.73;233968;1199;140020;-64
2021/09/06 07:38:29;;;;;;;9.80;5.50;;;;;;;13.16;63.66;100090.49;233913;1201;138928;-64
2021/09/06 07:43:32;;;;;;;6.90;4.70;;;;;;;13.26;63.62;100086.42;233897;1201;139012;-64
2021/09/06 07:48:36;;;;;;;162.80;106.90;;;;;;;13.39;63.45;100086.58;233855;1201;139647;-64
2021/09/06 07:53:39;;;;;;;20.90;12.80;;;;;;;13.56;63.73;100088.27;233736;1201;141170;-64
2021/09/06 07:58:42;;;;;;;7.50;5.10;;;;;;;14.29;64.76;100094.30;234029;1201;140408;-64
2021/09/06 08:03:46;;;;;;;16.10;8.30;;;;;;;14.81;63.95;100089.20;233308;1200;139090;-65
2021/09/06 08:08:49;;;;;;;11.50;6.60;;;;;;;15.22;63.50;100088.55;233663;1198;139079;-61
2021/09/06 08:13:54;;;;;;;10.10;4.60;;;;;;;15.56;63.07;100087.91;233934;1198;139573;-62
2021/09/06 08:18:59;;;;;;;7.80;4.50;;;;;;;15.91;62.52;100084.06;233774;1201;139070;-61
2021/09/06 08:24:02;;;;;;;7.20;4.70;;;;;;;16.13;61.93;100078.25;233834;1200;139183;-60
2021/09/06 08:29:06;;;;;;;8.70;4.70;;;;;;;16.31;61.20;100075.54;233805;1201;139297;-63
2021/09/06 08:34:10;;;;;;;10.10;4.30;;;;;;;16.38;60.81;100068.83;233699;1200;139185;-63
2021/09/06 08:39:16;;;;;;;6.60;3.50;;;;;;;16.43;60.11;100076.56;233604;1201;139780;-62
2021/09/06 08:44:24;;;;;;;5.90;3.00;;;;;;;16.41;59.64;100077.89;233978;1200;139770;-64
2021/09/06 08:49:28;;;;;;;9.20;3.00;;;;;;;16.51;59.49;100085.84;233756;1199;138811;-63
2021/09/06 08:54:31;;;;;;;188.80;106.50;;;;;;;16.62;59.28;100084.91;233609;1199;139532;-64
2021/09/06 08:59:35;;;;;;;45.00;25.00;;;;;;;16.72;59.26;100089.38;233071;1201;140144;-64
2021/09/06 09:05:03;;;;;;;22.50;12.90;;;;;;;16.88;59.04;100091.69;233897;1201;139929;-64
2021/09/06 09:10:32;;;;;;;19.40;11.60;;;;;;;17.00;58.52;100087.26;233865;1201;140845;-62
2021/09/06 09:15:55;;;;;;;13.90;6.70;;;;;;;17.16;57.82;100083.17;233907;1199;139999;-64
2021/09/06 09:21:18;;;;;;;8.10;4.60;;;;;;;17.30;57.33;100083.45;233863;1200;141828;-61
2021/09/06 09:26:52;;;;;;;5.30;2.30;;;;;;;17.36;56.33;100082.44;233849;1199;139576;-62
2021/09/06 09:32:10;;;;;;;6.60;2.70;;;;;;;17.38;55.63;100082.87;233869;1199;139380;-63
2021/09/06 09:37:27;;;;;;;6.10;2.30;;;;;;;17.43;55.41;100079.82;233838;1198;139487;-63
2021/09/06 09:42:31;;;;;;;6.80;2.60;;;;;;;17.51;55.30;100073.07;233961;1199;141304;-62
2021/09/06 09:47:34;;;;;;;6.30;2.60;;;;;;;17.54;54.69;100072.13;233819;1199;140169;-64
2021/09/06 09:52:38;;;;;;;8.20;3.00;;;;;;;17.53;54.67;100069.88;234040;1201;139667;-64
2021/09/06 09:57:42;;;;;;;22.20;6.90;;;;;;;17.56;54.18;100061.79;233894;1199;140094;-63
2021/09/06 10:02:59;;;;;;;17.30;6.90;;;;;;;17.61;54.28;100056.92;233292;1198;139101;-64
2021/09/06 10:08:16;;;;;;;11.90;4.40;;;;;;;17.70;54.36;100051.40;233289;1199;139063;-61
2021/09/06 10:13:19;;;;;;;12.70;4.70;;;;;;;17.84;54.32;100045.73;233948;1199;139036;-64
2021/09/06 10:18:23;;;;;;;8.90;3.40;;;;;;;18.01;54.37;100039.75;233115;1200;161621;-64
2021/09/06 10:23:28;;;;;;;7.60;3.40;;;;;;;18.15;54.17;100034.83;233347;1196;139368;-64
2021/09/06 10:28:42;;;;;;;10.60;3.50;;;;;;;18.28;53.67;100031.03;233159;1199;138326;-63
2021/09/06 10:33:56;;;;;;;7.90;3.80;;;;;;;18.37;53.55;100023.86;233556;1200;139547;-65
2021/09/06 10:39:09;;;;;;;6.50;2.80;;;;;;;18.46;53.04;100025.07;234007;1199;139616;-64
2021/09/06 10:44:12;;;;;;;7.30;2.80;;;;;;;18.52;52.40;100027.30;233899;1199;138825;-64
2021/09/06 10:49:22;;;;;;;3.40;2.10;;;;;;;18.60;52.06;100027.40;234082;1199;138828;-64
2021/09/06 10:54:25;;;;;;;5.10;2.10;;;;;;;18.62;51.71;100024.73;234004;1199;139017;-65
2021/09/06 10:59:29;;;;;;;6.80;3.00;;;;;;;18.58;51.14;100020.55;234119;1199;139046;-65
2021/09/06 11:04:33;;;;;;;8.20;2.50;;;;;;;18.54;50.89;100016.73;234052;1199;139192;-64
2021/09/06 11:09:37;;;;;;;5.70;2.90;;;;;;;18.54;50.86;100011.31;233882;1199;138940;-65
2021/09/06 11:14:43;;;;;;;;;;;;;;;18.60;50.88;100006.33;234043;1199;138978;-63
2021/09/06 11:19:49;;;;;;;4.80;2.40;;;;;;;18.70;50.81;100011.83;234052;1201;125258;-65
2021/09/06 11:25:02;;;;;;;5.90;2.70;;;;;;;18.80;50.88;100005.32;233987;1201;138321;-62
2021/09/06 11:30:07;;;;;;;8.20;2.90;;;;;;;18.88;50.84;99999.98;233842;1199;138957;-65
2021/09/06 11:35:14;;;;;;;6.50;3.00;;;;;;;18.97;50.75;99992.30;234095;1200;138640;-64
2021/09/06 11:40:17;;;;;;;4.70;2.50;;;;;;;19.07;50.72;99986.02;234010;1200;139310;-64
2021/09/06 11:45:21;;;;;;;9.00;2.90;;;;;;;19.22;50.73;99981.96;233956;1200;139007;-65
2021/09/06 11:50:35;;;;;;;5.80;2.90;;;;;;;19.39;50.67;99978.15;234030;1199;138612;-65
2021/09/06 11:55:53;;;;;;;9.00;2.70;;;;;;;19.58;50.32;99971.36;234074;1199;139729;-63
2021/09/06 12:01:16;;;;;;;13.10;3.40;;;;;;;19.78;49.72;99975.94;234134;1199;138813;-65
2021/09/06 12:06:25;;;;;;;8.40;3.10;;;;;;;19.97;49.49;99968.40;234010;1198;138303;-63
2021/09/06 12:11:36;;;;;;;8.30;2.50;;;;;;;20.18;49.36;99960.61;234206;1198;139647;-64
2021/09/06 12:16:39;;;;;;;5.30;2.30;;;;;;;20.34;48.73;99958.91;234099;1199;138275;-63
2021/09/06 12:21:46;;;;;;;4.80;2.30;;;;;;;20.49;48.30;99958.67;234096;1198;138840;-64
2021/09/06 12:26:51;;;;;;;3.80;2.00;;;;;;;20.69;48.46;99946.43;233797;1199;139485;-63
2021/09/06 12:31:55;;;;;;;6.10;2.50;;;;;;;20.93;48.43;99945.56;233944;1199;138649;-63
2021/09/06 12:37:03;;;;;;;7.80;2.70;;;;;;;21.09;48.03;99941.92;233958;1199;138889;-64
2021/09/06 12:42:06;;;;;;;12.30;3.90;;;;;;;21.26;47.83;99935.77;233866;1199;140958;-65
2021/09/06 12:47:09;;;;;;;11.00;5.90;;;;;;;21.44;47.91;99925.15;234100;1199;138744;-63
2021/09/06 12:52:13;;;;;;;7.00;3.30;;;;;;;21.66;47.62;99926.70;233940;1199;139030;-63
2021/09/06 12:57:16;;;;;;;6.80;3.60;;;;;;;21.80;47.37;99919.40;233925;1199;138552;-63
2021/09/06 13:02:19;;;;;;;4.90;2.60;;;;;;;21.93;46.95;99915.67;233949;1199;138816;-62
2021/09/06 13:07:22;;;;;;;5.90;2.50;;;;;;;22.08;46.87;99920.77;234037;1198;138917;-62
2021/09/06 13:12:25;;;;;;;5.10;2.80;;;;;;;22.28;46.71;99917.37;233883;1198;138801;-61
2021/09/06 13:17:29;;;;;;;4.70;2.70;;;;;;;22.43;46.37;99910.52;233992;1201;138813;-63
2021/09/06 13:22:33;;;;;;;4.60;2.70;;;;;;;22.61;46.01;99910.02;233998;1199;138228;-63
2021/09/06 13:27:37;;;;;;;6.20;2.40;;;;;;;22.74;45.82;99914.67;234022;1198;138754;-62
2021/09/06 13:32:41;;;;;;;3.20;2.00;;;;;;;22.87;45.60;99913.73;233975;1198;138515;-64
2021/09/06 13:37:45;;;;;;;4.70;2.60;;;;;;;23.02;45.48;99909.63;233979;1200;139008;-64
2021/09/06 13:42:48;;;;;;;3.30;2.20;;;;;;;23.11;45.00;99905.35;233866;1199;138553;-63
2021/09/06 13:47:51;;;;;;;5.30;2.60;;;;;;;23.16;44.73;99902.55;234013;1196;138104;-62
2021/09/06 13:52:55;;;;;;;7.50;2.60;;;;;;;23.19;44.11;99899.36;233932;1198;138577;-61
2021/09/06 13:57:59;;;;;;;20.20;13.00;;;;;;;23.22;44.18;99900.53;233604;1200;138029;-63
2021/09/06 14:03:05;;;;;;;8.30;6.00;;;;;;;23.25;43.89;99899.17;232073;1197;139787;-64
2021/09/06 14:08:10;;;;;;;8.00;4.90;;;;;;;23.10;43.48;99899.91;234077;1199;139101;-63
2021/09/06 14:13:13;;;;;;;6.20;4.00;;;;;;;22.81;43.35;99901.09;233756;1200;140310;-63
2021/09/06 14:18:16;;;;;;;7.50;3.90;;;;;;;22.38;42.90;99899.20;233876;1200;139538;-64
2021/09/06 14:23:19;;;;;;;6.70;3.40;;;;;;;21.96;43.09;99901.23;234049;1199;139363;-62
2021/09/06 14:28:22;;;;;;;5.40;2.70;;;;;;;21.61;43.34;99901.02;233963;1198;138637;-62
2021/09/06 14:33:28;;;;;;;7.50;2.80;;;;;;;21.27;43.56;99899.09;233272;1198;140003;-63
2021/09/06 14:38:31;;;;;;;9.30;3.20;;;;;;;21.02;43.63;99897.60;233598;1201;138731;-63
2021/09/06 14:43:34;;;;;;;10.10;3.00;;;;;;;20.78;43.91;99893.45;233473;1200;139005;-63
2021/09/06 14:48:52;;;;;;;6.50;2.60;;;;;;;20.56;44.14;99890.77;233926;1199;139461;-63
2021/09/06 14:53:56;;;;;;;9.10;2.90;;;;;;;20.35;44.51;99889.92;233915;1199;138964;-63
2021/09/06 14:58:59;;;;;;;5.80;3.50;;;;;;;20.16;45.10;99893.06;233526;1200;139796;-63
2021/09/06 15:04:02;;;;;;;4.90;2.70;;;;;;;19.99;45.51;99891.69;233289;1199;140060;-63
2021/09/06 15:09:06;;;;;;;13.50;4.50;;;;;;;19.84;45.91;99890.77;233536;1200;138230;-63
2021/09/06 15:14:09;;;;;;;14.80;5.00;;;;;;;19.73;46.05;99888.17;233917;1200;138986;-63
2021/09/06 15:19:12;;;;;;;4.80;2.80;;;;;;;19.63;46.23;99887.04;233918;1198;141751;-63
2021/09/06 15:24:15;;;;;;;11.00;5.70;;;;;;;19.54;46.42;99886.69;233377;1199;140114;-63
2021/09/06 15:29:18;;;;;;;12.60;4.20;;;;;;;19.46;46.72;99886.67;234085;1200;138800;-63
2021/09/06 15:34:23;;;;;;;254.20;211.80;;;;;;;19.38;46.89;99881.92;233606;1200;138860;-63
2021/09/06 15:39:27;;;;;;;26.00;13.60;;;;;;;19.31;46.89;99880.00;233436;1199;139737;-63
2021/09/06 15:44:30;;;;;;;34.20;11.20;;;;;;;19.26;47.22;99883.02;233955;1199;140345;-65
2021/09/06 15:49:33;;;;;;;14.60;5.30;;;;;;;19.19;48.14;99875.99;234068;1198;140081;-63
2021/09/06 15:54:36;;;;;;;25.90;8.70;;;;;;;19.17;48.51;99871.39;233951;1198;138975;-63
2021/09/06 15:59:39;;;;;;;6.70;3.30;;;;;;;19.12;48.97;99865.98;234045;1199;139559;-64
2021/09/06 16:04:43;;;;;;;10.90;4.20;;;;;;;19.06;48.59;99858.20;233269;1199;138248;-61
2021/09/06 16:09:46;;;;;;;5.40;3.00;;;;;;;19.02;48.66;99863.24;233638;1198;139141;-62
2021/09/06 16:14:49;;;;;;;4.80;3.00;;;;;;;18.95;48.39;99864.59;234002;1198;139952;-63
2021/09/06 16:19:52;;;;;;;2.80;2.10;;;;;;;18.90;48.59;99866.59;233993;1199;138594;-63
2021/09/06 16:24:55;;;;;;;6.50;3.50;;;;;;;18.82;48.15;99867.05;233944;1199;138963;-63
2021/09/06 16:29:58;;;;;;;5.10;2.60;;;;;;;18.72;48.36;99866.77;234114;1198;138032;-61
2021/09/06 16:35:01;;;;;;;5.90;3.00;;;;;;;18.62;48.22;99870.14;234054;1198;139411;-63
2021/09/06 16:40:05;;;;;;;6.40;2.70;;;;;;;18.51;48.42;99869.06;233885;1200;142436;-62
2021/09/06 16:45:09;;;;;;;4.70;2.40;;;;;;;18.38;48.34;99868.84;233950;1196;138508;-63
2021/09/06 16:50:12;;;;;;;5.20;2.10;;;;;;;18.29;48.65;99871.08;234045;1199;138592;-63
2021/09/06 16:55:16;;;;;;;9.50;2.90;;;;;;;18.18;48.80;99866.63;234068;1199;140552;-64
2021/09/06 17:00:19;;;;;;;5.80;2.60;;;;;;;18.15;49.21;99871.62;234042;1198;139572;-64
2021/09/06 17:05:22;;;;;;;551.90;343.50;;;;;;;18.08;49.37;99868.95;234127;1198;140086;-62
2021/09/06 17:10:25;;;;;;;36.60;21.50;;;;;;;17.94;49.28;99863.08;233742;1200;142502;-62
2021/09/06 17:15:28;;;;;;;13.10;5.10;;;;;;;17.78;49.24;99861.99;233853;1200;140222;-63
2021/09/06 17:20:31;;;;;;;9.00;3.20;;;;;;;17.59;49.50;99868.27;233918;1200;139210;-64
2021/09/06 17:25:34;;;;;;;9.30;3.10;;;;;;;17.42;49.92;99876.22;233838;1200;138617;-62
2021/09/06 17:30:39;;;;;;;7.40;3.50;;;;;;;17.25;49.89;99877.16;232867;1200;139688;-63
2021/09/06 17:35:48;;;;;;;8.60;3.90;;;;;;;17.10;50.16;99882.79;233520;1200;138784;-62
2021/09/06 17:40:52;;;;;;;7.90;3.20;;;;;;;16.96;50.34;99877.41;233976;1199;138505;-66
2021/09/06 17:45:54;;;;;;;7.50;3.60;;;;;;;16.81;50.67;99880.30;234004;1198;138505;-64
2021/09/06 17:50:58;;;;;;;11.00;4.40;;;;;;;16.68;51.36;99883.01;233965;1199;139111;-64
2021/09/06 17:56:01;;;;;;;12.60;6.10;;;;;;;16.69;51.97;99884.93;233934;1199;140302;-64
2021/09/06 18:01:04;;;;;;;12.90;6.50;;;;;;;16.61;51.80;99886.94;233991;1199;139921;-63
2021/09/06 18:06:07;;;;;;;15.10;6.70;;;;;;;16.50;51.90;99891.35;233979;1198;139414;-62
2021/09/06 18:11:11;;;;;;;12.90;6.80;;;;;;;16.39;52.36;99889.45;234075;1199;139840;-62
2021/09/06 18:16:14;;;;;;;98.60;69.60;;;;;;;16.36;53.07;99892.73;233908;1199;139247;-61
2021/09/06 18:21:23;;;;;;;21.40;11.60;;;;;;;16.49;53.07;99897.70;234007;1198;139400;-61
2021/09/06 18:26:27;;;;;;;17.70;10.00;;;;;;;16.41;52.87;99895.80;233971;1198;139082;-61
2021/09/06 18:31:30;;;;;;;308.90;227.40;;;;;;;16.23;52.90;99895.96;233703;1199;139582;-62
2021/09/06 18:36:34;;;;;;;32.90;17.60;;;;;;;16.09;53.02;99905.02;233926;1199;139688;-62
2021/09/06 18:41:41;;;;;;;23.80;12.80;;;;;;;15.92;52.90;99907.70;234032;1199;138622;-62
2021/09/06 18:46:47;;;;;;;23.10;12.10;;;;;;;15.68;53.27;99910.98;233906;1199;140481;-63
2021/09/06 18:51:50;;;;;;;27.50;13.80;;;;;;;15.46;53.84;99915.10;233927;1200;138961;-64
2021/09/06 18:56:53;;;;;;;26.20;13.50;;;;;;;15.29;53.93;99915.00;233892;1200;138933;-62
2021/09/06 19:01:56;;;;;;;66.20;45.20;;;;;;;15.14;54.30;99914.61;234065;1198;139956;-62
2021/09/06 19:07:00;;;;;;;45.60;25.10;;;;;;;15.03;54.80;99911.24;233995;1199;139336;-63
2021/09/06 19:12:05;;;;;;;23.30;13.00;;;;;;;15.00;54.98;99915.17;233999;1200;141179;-58
2021/09/06 19:17:09;;;;;;;24.80;14.20;;;;;;;14.87;54.99;99910.33;233840;1200;140588;-64
2021/09/06 19:22:15;;;;;;;22.40;13.50;;;;;;;14.71;55.25;99911.36;233969;1198;140815;-64
2021/09/06 19:27:18;;;;;;;25.30;13.90;;;;;;;14.58;55.43;99913.99;233801;1199;138863;-63
2021/09/06 19:32:24;;;;;;;25.10;13.70;;;;;;;14.46;55.69;99916.36;234004;1200;139297;-64
2021/09/06 19:37:28;;;;;;;27.10;13.40;;;;;;;14.35;55.98;99913.09;234014;1199;139850;-63
2021/09/06 19:42:32;;;;;;;23.40;12.30;;;;;;;14.27;56.16;99917.17;234044;1198;139199;-63
2021/09/06 19:47:35;;;;;;;25.10;11.80;;;;;;;14.18;56.52;99922.20;234189;1198;138809;-64
2021/09/06 19:52:39;;;;;;;20.60;11.60;;;;;;;14.13;56.67;99928.23;233894;1198;139526;-63
2021/09/06 19:57:42;;;;;;;20.10;10.50;;;;;;;14.09;56.81;99926.73;233896;1199;139033;-63
2021/09/06 20:02:46;;;;;;;19.30;11.10;;;;;;;14.07;57.11;99924.89;233436;1199;139107;-64
2021/09/06 20:07:51;;;;;;;20.70;10.40;;;;;;;14.04;57.21;99928.27;234074;1199;140131;-61
2021/09/06 20:12:55;;;;;;;20.60;9.10;;;;;;;13.96;57.35;99934.27;233923;1198;139300;-64
2021/09/06 20:18:00;;;;;;;18.50;9.40;;;;;;;13.87;57.38;99933.41;233262;1199;138587;-65
2021/09/06 20:23:03;;;;;;;19.20;8.80;;;;;;;13.75;57.64;99930.05;233966;1199;139184;-67
2021/09/06 20:28:07;;;;;;;17.40;9.10;;;;;;;13.64;57.84;99930.50;233997;1200;139269;-64
2021/09/06 20:33:10;;;;;;;17.80;8.70;;;;;;;13.53;57.90;99924.41;233756;1201;138797;-66
2021/09/06 20:38:13;;;;;;;20.30;8.70;;;;;;;13.44;58.14;99931.17;234006;1201;139538;-67
2021/09/06 20:43:20;;;;;;;17.80;10.10;;;;;;;13.33;58.25;99930.77;233983;1200;138663;-63
2021/09/06 20:48:23;;;;;;;15.20;8.50;;;;;;;13.25;58.39;99934.27;234010;1199;140148;-66
2021/09/06 20:53:26;;;;;;;18.20;9.10;;;;;;;13.20;58.69;99933.86;233994;1199;139961;-64
2021/09/06 20:58:29;;;;;;;16.30;9.10;;;;;;;13.18;58.73;99923.96;234012;1199;139789;-63
2021/09/06 21:03:32;;;;;;;22.80;9.10;;;;;;;13.17;59.01;99924.03;233904;1201;139274;-67
2021/09/06 21:08:35;;;;;;;16.30;8.90;;;;;;;13.15;58.90;99921.09;234011;1199;139507;-61
2021/09/06 21:13:39;;;;;;;13.80;8.70;;;;;;;13.12;59.14;99928.63;234047;1198;140354;-61
2021/09/06 21:18:42;;;;;;;14.60;9.10;;;;;;;13.05;59.05;99932.55;233918;1198;138350;-61
2021/09/06 21:23:45;;;;;;;16.40;9.40;;;;;;;13.01;59.40;99935.11;234109;1198;139364;-62
2021/09/06 21:28:48;;;;;;;17.30;9.20;;;;;;;12.93;59.19;99932.54;233526;1201;138948;-59
2021/09/06 21:33:51;;;;;;;18.80;9.90;;;;;;;12.83;59.60;99933.09;233997;1199;138869;-63
2021/09/06 21:38:54;;;;;;;21.60;9.80;;;;;;;12.74;59.54;99933.80;233436;1200;140597;-58
2021/09/06 21:43:57;;;;;;;17.30;9.60;;;;;;;12.65;59.35;99931.46;233791;1201;138685;-63
2021/09/06 21:49:00;;;;;;;16.90;9.60;;;;;;;12.60;59.77;99931.96;233895;1200;139304;-63
2021/09/06 21:54:03;;;;;;;17.20;9.90;;;;;;;12.56;59.83;99930.88;234111;1200;139297;-62
2021/09/06 21:59:06;;;;;;;20.30;9.90;;;;;;;12.50;59.94;99929.45;234029;1201;140316;-62
2021/09/06 22:04:09;;;;;;;22.80;9.80;;;;;;;12.46;59.99;99928.23;233166;1200;138449;-61
2021/09/06 22:09:13;;;;;;;18.60;9.40;;;;;;;12.39;59.80;99927.79;234061;1200;139557;-59
2021/09/06 22:14:16;;;;;;;14.20;9.20;;;;;;;12.28;60.19;99924.08;234081;1199;140114;-60
2021/09/06 22:19:19;;;;;;;17.60;9.30;;;;;;;12.18;59.89;99932.30;233875;1198;138786;-62
2021/09/06 22:24:23;;;;;;;19.70;10.00;;;;;;;12.05;60.35;99931.39;233934;1201;139379;-65
2021/09/06 22:29:26;;;;;;;19.80;10.40;;;;;;;11.94;60.29;99928.41;234127;1201;138556;-61
2021/09/06 22:34:32;;;;;;;22.10;10.50;;;;;;;11.86;60.44;99934.02;233945;1201;139032;-63
2021/09/06 22:39:35;;;;;;;19.60;10.50;;;;;;;11.81;60.60;99928.03;233712;1197;140294;-63
2021/09/06 22:44:38;;;;;;;19.30;10.40;;;;;;;11.82;60.84;99923.70;234026;1201;139810;-61
2021/09/06 22:49:42;;;;;;;17.80;10.60;;;;;;;11.85;60.90;99919.86;234014;1201;139352;-61
2021/09/06 22:54:45;;;;;;;19.80;10.70;;;;;;;11.83;61.27;99919.00;233985;1198;138929;-62
2021/09/06 22:59:48;;;;;;;21.20;11.40;;;;;;;11.77;60.88;99919.66;234223;1201;139130;-64
2021/09/06 23:04:52;;;;;;;21.40;11.50;;;;;;;11.71;61.09;99913.80;234070;1198;141469;-59
2021/09/06 23:09:55;;;;;;;19.30;11.10;;;;;;;11.62;60.98;99907.87;234084;1198;140326;-63